createdAt,value
2022-09-06T00:01:19.867Z,101684.66
2022-09-06T00:03:46.548Z,101699.84
2022-09-06T00:06:16.639Z,101708.91
2022-09-06T00:08:44.341Z,101695.34
2022-09-06T00:11:11.191Z,101685.75
2022-09-06T00:13:38.301Z,101681.78
2022-09-06T00:16:10.712Z,101676.88
2022-09-06T00:18:37.689Z,101679.31
2022-09-06T00:21:12.884Z,101685.19
2022-09-06T00:23:39.314Z,101684.69
2022-09-06T00:26:05.835Z,101680.78
2022-09-06T00:28:32.336Z,101694.75
2022-09-06T00:30:58.857Z,101699.88
2022-09-06T00:33:25.325Z,101701.09
2022-09-06T00:35:58.636Z,101704.53
2022-09-06T00:38:25.098Z,101690.78
2022-09-06T00:40:51.564Z,101683.44
2022-09-06T00:43:17.971Z,101677.50
2022-09-06T00:45:44.506Z,101677.47
2022-09-06T00:48:11.147Z,101675.25
2022-09-06T00:50:37.616Z,101680.91
2022-09-06T00:53:04.144Z,101678.97
2022-09-06T00:55:30.805Z,101688.53
2022-09-06T00:57:57.597Z,101692.72
2022-09-06T01:00:24.127Z,101693.88
2022-09-06T01:02:50.646Z,101696.78
2022-09-06T01:05:17.562Z,101697.00
2022-09-06T01:07:54.052Z,101694.75
2022-09-06T01:10:36.115Z,101700.63
2022-09-06T01:13:34.382Z,101705.03
2022-09-06T01:16:23.102Z,101705.75
2022-09-06T01:19:07.778Z,101716.50
2022-09-06T01:21:52.824Z,101719.66
2022-09-06T01:24:47.828Z,101710.81
2022-09-06T01:27:20.215Z,101710.75
2022-09-06T01:30:00.571Z,101719.78
2022-09-06T01:32:36.671Z,101717.06
2022-09-06T01:35:15.746Z,101709.91
2022-09-06T01:37:42.946Z,101704.72
2022-09-06T01:40:09.602Z,101698.03
2022-09-06T01:42:38.700Z,101693.13
2022-09-06T01:45:14.953Z,101678.16
2022-09-06T01:47:41.368Z,101675.19
2022-09-06T01:50:18.261Z,101671.75
2022-09-06T01:53:05.901Z,101668.56
2022-09-06T01:55:39.508Z,101669.78
2022-09-06T01:58:27.490Z,101657.22
2022-09-06T02:01:38.255Z,101653.03
2022-09-06T02:04:23.384Z,101660.13
2022-09-06T02:06:56.208Z,101657.81
2022-09-06T02:09:26.538Z,101654.38
2022-09-06T02:11:59.340Z,101642.38
2022-09-06T02:14:36.053Z,101634.31
2022-09-06T02:17:04.421Z,101612.66
2022-09-06T02:19:48.619Z,101599.41
2022-09-06T02:22:19.420Z,101582.72
2022-09-06T02:24:50.954Z,101566.47
2022-09-06T02:27:17.444Z,101555.63
2022-09-06T02:29:44.880Z,101535.00
2022-09-06T02:32:17.928Z,101530.28
2022-09-06T02:34:46.130Z,101516.97
2022-09-06T02:37:13.723Z,101507.13
2022-09-06T02:39:40.234Z,101511.03
2022-09-06T02:42:12.866Z,101506.38
2022-09-06T02:44:39.340Z,101516.16
2022-09-06T02:47:05.970Z,101514.66
2022-09-06T02:49:32.487Z,101519.59
2022-09-06T02:51:58.983Z,101524.50
2022-09-06T02:54:25.408Z,101513.47
2022-09-06T02:56:52.539Z,101528.13
2022-09-06T02:59:19.031Z,101529.63
2022-09-06T03:01:45.562Z,101526.94
2022-09-06T03:04:12.244Z,101527.16
2022-09-06T03:06:38.673Z,101518.59
2022-09-06T03:09:05.120Z,101518.84
2022-09-06T03:11:31.718Z,101525.44
2022-09-06T03:13:58.149Z,101522.50
2022-09-06T03:16:24.918Z,101522.97
2022-09-06T03:18:51.437Z,101518.25
2022-09-06T03:21:17.890Z,101524.78
2022-09-06T03:23:45.750Z,101522.28
2022-09-06T03:26:12.208Z,101527.47
2022-09-06T03:28:39.310Z,101533.88
2022-09-06T03:31:06.134Z,101532.66
2022-09-06T03:33:32.744Z,101538.53
2022-09-06T03:36:01.689Z,101544.38
2022-09-06T03:38:29.506Z,101543.38
2022-09-06T03:40:56.439Z,101545.78
2022-09-06T03:43:24.882Z,101538.19
2022-09-06T03:45:53.791Z,101547.66
2022-09-06T03:48:21.934Z,101537.81
2022-09-06T03:50:51.379Z,101539.97
2022-09-06T03:53:18.807Z,101541.66
2022-09-06T03:55:46.719Z,101551.38
2022-09-06T03:58:13.259Z,101560.38
2022-09-06T04:00:39.944Z,101556.44
2022-09-06T04:03:06.648Z,101554.13
2022-09-06T04:05:33.116Z,101558.69
2022-09-06T04:07:59.588Z,101563.03
2022-09-06T04:10:26.084Z,101575.94
2022-09-06T04:12:52.722Z,101585.69
2022-09-06T04:15:19.164Z,101571.97
2022-09-06T04:17:46.696Z,101570.47
2022-09-06T04:20:14.020Z,101576.31
2022-09-06T04:22:40.716Z,101582.44
2022-09-06T04:25:07.747Z,101577.06
2022-09-06T04:27:34.514Z,101572.78
2022-09-06T04:30:00.898Z,101582.06
2022-09-06T04:32:27.409Z,101575.75
2022-09-06T04:34:53.830Z,101585.03
2022-09-06T04:37:20.362Z,101583.84
2022-09-06T04:39:47.117Z,101592.09
2022-09-06T04:42:13.953Z,101603.53
2022-09-06T04:44:40.423Z,101604.44
2022-09-06T04:47:14.550Z,101603.53
2022-09-06T04:49:44.192Z,101600.84
2022-09-06T04:52:11.207Z,101601.59
2022-09-06T04:54:38.489Z,101602.31
2022-09-06T04:57:05.050Z,101618.25
2022-09-06T04:59:31.514Z,101614.34
2022-09-06T05:01:58.236Z,101618.25
2022-09-06T05:04:24.774Z,101621.22
2022-09-06T05:07:00.677Z,101617.31
2022-09-06T05:09:27.323Z,101615.19
2022-09-06T05:11:53.733Z,101617.13
2022-09-06T05:14:20.357Z,101626.41
2022-09-06T05:16:46.871Z,101620.28
2022-09-06T05:19:13.360Z,101628.38
2022-09-06T05:21:39.793Z,101635.41
2022-09-06T05:24:06.267Z,101630.03
2022-09-06T05:26:32.711Z,101634.69
2022-09-06T05:28:59.130Z,101631.97
2022-09-06T05:31:31.146Z,101635.88
2022-09-06T05:33:57.775Z,101639.31
2022-09-06T05:36:25.432Z,101650.63
2022-09-06T05:38:53.275Z,101646.84
2022-09-06T05:41:20.361Z,101649.81
2022-09-06T05:43:47.016Z,101651.84
2022-09-06T05:46:13.629Z,101657.34
2022-09-06T05:48:40.239Z,101653.91
2022-09-06T05:51:14.575Z,101653.16
2022-09-06T05:53:43.634Z,101641.91
2022-09-06T05:56:11.896Z,101641.28
2022-09-06T05:58:38.907Z,101638.06
2022-09-06T06:01:19.007Z,101630.47
2022-09-06T06:03:56.877Z,101638.38
2022-09-06T06:06:24.924Z,101641.97
2022-09-06T06:08:51.504Z,101646.56
2022-09-06T06:11:18.387Z,101646.31
2022-09-06T06:13:45.036Z,101647.34
2022-09-06T06:16:18.979Z,101648.97
2022-09-06T06:18:51.263Z,101657.78
2022-09-06T06:21:24.069Z,101652.88
2022-09-06T06:23:53.222Z,101650.44
2022-09-06T06:26:20.373Z,101642.84
2022-09-06T06:28:46.981Z,101639.16
2022-09-06T06:31:14.195Z,101631.28
2022-09-06T06:33:41.199Z,101633.28
2022-09-06T06:36:23.258Z,101635.25
2022-09-06T06:38:51.962Z,101635.75
2022-09-06T06:41:19.422Z,101635.72
2022-09-06T06:43:45.975Z,101632.28
2022-09-06T06:46:15.413Z,101628.81
2022-09-06T06:48:46.075Z,101624.88
2022-09-06T06:51:15.010Z,101622.16
2022-09-06T06:53:41.531Z,101621.22
2022-09-06T06:56:17.768Z,101624.91
2022-09-06T06:58:45.309Z,101621.44
2022-09-06T07:01:13.730Z,101621.66
2022-09-06T07:03:40.371Z,101618.22
2022-09-06T07:08:39.985Z,101609.34
2022-09-06T07:11:08.114Z,101607.16
2022-09-06T07:13:34.704Z,101601.28
2022-09-06T07:16:18.569Z,101602.28
2022-09-06T07:18:45.853Z,101595.59
2022-09-06T07:26:30.455Z,101595.63
2022-09-06T07:28:59.519Z,101591.22
2022-09-06T07:34:14.477Z,101601.31
2022-09-06T07:36:40.943Z,101591.72
2022-09-06T07:39:07.394Z,101599.09
2022-09-06T07:41:33.816Z,101602.28
2022-09-06T07:44:00.325Z,101606.69
2022-09-06T07:46:26.794Z,101601.50
2022-09-06T07:48:53.229Z,101609.13
2022-09-06T07:51:20.959Z,101610.34
2022-09-06T07:54:06.906Z,101613.53
2022-09-06T07:56:38.963Z,101614.72
2022-09-06T07:59:05.495Z,101612.28
2022-09-06T08:01:39.312Z,101611.25
2022-09-06T08:04:15.210Z,101613.94
2022-09-06T08:09:30.943Z,101604.69
2022-09-06T08:11:57.411Z,101592.84
2022-09-06T08:14:23.944Z,101592.25
2022-09-06T08:16:50.452Z,101591.66
2022-09-06T08:19:18.216Z,101590.16
2022-09-06T08:21:44.659Z,101587.63
2022-09-06T08:24:11.188Z,101587.59
2022-09-06T08:26:47.547Z,101590.19
2022-09-06T08:29:14.388Z,101584.41
2022-09-06T08:31:42.798Z,101582.66
2022-09-06T08:34:09.548Z,101575.69
2022-09-06T08:36:36.135Z,101580.34
2022-09-06T08:39:05.339Z,101578.41
2022-09-06T08:41:44.924Z,101579.22
2022-09-06T08:47:13.024Z,101570.22
2022-09-06T08:49:47.747Z,101570.97
2022-09-06T08:52:23.571Z,101564.28
2022-09-06T08:55:02.134Z,101571.75
2022-09-06T08:57:40.251Z,101562.88
2022-09-06T09:00:11.290Z,101555.88
2022-09-06T09:02:46.820Z,101558.16
2022-09-06T09:05:35.090Z,101562.78
2022-09-06T09:08:20.456Z,101562.34
2022-09-06T09:11:02.988Z,101567.09
2022-09-06T09:13:59.112Z,101571.09
2022-09-06T09:16:25.867Z,101561.91
2022-09-06T09:18:55.158Z,101566.47
2022-09-06T09:21:29.544Z,101564.91
2022-09-06T09:24:01.956Z,101563.13
2022-09-06T09:26:35.046Z,101566.28
2022-09-06T09:29:23.947Z,101558.22
2022-09-06T09:31:54.910Z,101548.50
2022-09-06T09:34:33.230Z,101541.75
2022-09-06T09:40:00.721Z,101548.69
2022-09-06T09:42:37.331Z,101559.78
2022-09-06T09:45:25.617Z,101554.56
2022-09-06T09:47:52.521Z,101558.16
2022-09-06T09:50:27.937Z,101562.00
2022-09-06T09:52:55.474Z,101557.28
2022-09-06T09:55:24.753Z,101554.47
2022-09-06T09:57:53.825Z,101558.03
2022-09-06T10:00:35.321Z,101556.25
2022-09-06T10:03:12.499Z,101559.34
2022-09-06T10:05:40.176Z,101555.34
2022-09-06T10:08:12.261Z,101553.47
2022-09-06T10:10:47.599Z,101558.19
2022-09-06T10:13:25.341Z,101557.88
2022-09-06T10:15:53.969Z,101557.69
2022-09-06T10:18:20.461Z,101549.75
2022-09-06T10:20:56.137Z,101551.22
2022-09-06T10:26:43.513Z,101559.72
2022-09-06T10:29:10.112Z,101544.19
2022-09-06T10:31:48.992Z,101546.47
2022-09-06T10:34:24.738Z,101552.69
2022-09-06T10:37:07.592Z,101548.88
2022-09-06T10:40:02.972Z,101555.13
2022-09-06T10:42:45.557Z,101549.56
2022-09-06T10:45:20.970Z,101551.59
2022-09-06T10:47:50.472Z,101562.59
2022-09-06T10:50:17.491Z,101554.53
2022-09-06T10:52:48.363Z,101562.13
2022-09-06T10:55:18.140Z,101567.94
2022-09-06T11:00:47.234Z,101572.84
2022-09-06T11:06:13.909Z,101561.84
2022-09-06T11:08:51.211Z,101559.91
2022-09-06T11:11:26.116Z,101566.16
2022-09-06T11:13:52.631Z,101565.97
2022-09-06T11:16:31.204Z,101563.13
2022-09-06T11:19:14.981Z,101567.34
2022-09-06T11:22:07.414Z,101574.78
2022-09-06T11:24:36.853Z,101569.34
2022-09-06T11:27:34.944Z,101584.13
2022-09-06T11:30:05.958Z,101579.47
2022-09-06T11:32:50.259Z,101583.91
2022-09-06T11:35:29.148Z,101581.56
2022-09-06T11:38:05.884Z,101583.22
2022-09-06T11:40:38.702Z,101577.53
2022-09-06T11:43:05.055Z,101581.53
2022-09-06T11:45:51.702Z,101582.56
2022-09-06T11:48:24.004Z,101579.78
2022-09-06T11:50:53.314Z,101581.03
2022-09-06T11:53:24.863Z,101584.13
2022-09-06T11:56:09.751Z,101581.91
2022-09-06T11:58:53.525Z,101582.38
2022-09-06T12:01:20.708Z,101586.72
2022-09-06T12:04:09.712Z,101588.03
2022-09-06T12:07:03.701Z,101585.47
2022-09-06T12:09:42.442Z,101579.72
2022-09-06T12:12:13.599Z,101571.84
2022-09-06T12:14:46.677Z,101573.31
2022-09-06T12:17:13.024Z,101579.72
2022-09-06T12:20:05.906Z,101577.72
2022-09-06T12:22:41.949Z,101588.13
2022-09-06T12:25:33.484Z,101578.72
2022-09-06T12:28:02.724Z,101572.00
2022-09-06T12:30:36.078Z,101566.94
2022-09-06T12:33:07.716Z,101570.31
2022-09-06T12:38:25.704Z,101565.44
2022-09-06T12:40:58.077Z,101567.31
2022-09-06T12:43:24.911Z,101562.88
2022-09-06T12:45:52.561Z,101567.66
2022-09-06T12:48:28.103Z,101560.13
2022-09-06T12:51:06.364Z,101541.66
2022-09-06T12:53:34.717Z,101545.47
2022-09-06T12:56:06.160Z,101540.59
2022-09-06T12:58:33.503Z,101541.06
2022-09-06T13:01:16.521Z,101540.50
2022-09-06T13:03:58.402Z,101542.75
2022-09-06T13:06:27.354Z,101544.63
2022-09-06T13:08:57.002Z,101541.63
2022-09-06T13:11:32.499Z,101539.75
2022-09-06T13:13:59.425Z,101533.22
2022-09-06T13:16:28.578Z,101534.50
2022-09-06T13:18:55.146Z,101522.38
2022-09-06T13:21:35.306Z,101533.56
2022-09-06T13:24:19.434Z,101516.84
2022-09-06T13:26:46.028Z,101514.25
2022-09-06T13:29:23.152Z,101510.09
2022-09-06T13:31:52.334Z,101491.91
2022-09-06T13:34:29.183Z,101497.03
2022-09-06T13:37:01.891Z,101493.56
2022-09-06T13:39:39.009Z,101499.41
2022-09-06T13:42:10.785Z,101496.63
2022-09-06T13:44:39.378Z,101492.22
2022-09-06T13:47:06.292Z,101487.81
2022-09-06T13:49:33.714Z,101482.50
2022-09-06T13:52:04.344Z,101478.88
2022-09-06T13:54:32.289Z,101466.75
2022-09-06T13:56:58.904Z,101467.84
2022-09-06T13:59:25.316Z,101458.03
2022-09-06T14:02:07.671Z,101456.19
2022-09-06T14:04:35.581Z,101456.38
2022-09-06T14:07:02.541Z,101463.97
2022-09-06T14:09:29.663Z,101450.19
2022-09-06T14:11:56.625Z,101453.97
2022-09-06T14:14:23.279Z,101452.84
2022-09-06T14:16:49.776Z,101467.56
2022-09-06T14:19:16.789Z,101470.44
2022-09-06T14:21:43.285Z,101473.56
2022-09-06T14:24:09.966Z,101477.16
2022-09-06T14:26:36.891Z,101480.63
2022-09-06T14:29:03.632Z,101483.56
2022-09-06T14:31:32.419Z,101480.50
2022-09-06T14:33:59.255Z,101474.91
2022-09-06T14:36:29.184Z,101476.81
2022-09-06T14:38:58.501Z,101487.94
2022-09-06T14:41:25.515Z,101496.19
2022-09-06T14:43:54.907Z,101495.00
2022-09-06T14:46:23.887Z,101492.28
2022-09-06T14:49:00.425Z,101492.16
2022-09-06T14:51:27.514Z,101484.16
2022-09-06T14:53:57.967Z,101481.66
2022-09-06T14:56:25.925Z,101483.38
2022-09-06T14:58:54.682Z,101484.06
2022-09-06T15:01:23.956Z,101474.56
2022-09-06T15:04:04.884Z,101475.81
2022-09-06T15:06:33.745Z,101468.16
2022-09-06T15:09:00.447Z,101461.56
2022-09-06T15:11:35.631Z,101453.59
2022-09-06T15:14:04.200Z,101446.47
2022-09-06T15:16:32.543Z,101449.91
2022-09-06T15:18:59.038Z,101435.69
2022-09-06T15:21:25.853Z,101437.41
2022-09-06T15:23:53.299Z,101434.25
2022-09-06T15:26:20.360Z,101442.44
2022-09-06T15:28:47.460Z,101437.19
2022-09-06T15:31:16.208Z,101440.81
2022-09-06T15:33:42.830Z,101435.88
2022-09-06T15:36:10.397Z,101435.53
2022-09-06T15:38:41.133Z,101432.59
2022-09-06T15:41:10.481Z,101438.03
2022-09-06T15:43:45.164Z,101436.59
2022-09-06T15:46:11.608Z,101436.78
2022-09-06T15:48:43.489Z,101434.63
2022-09-06T15:51:11.263Z,101457.03
2022-09-06T15:53:38.660Z,101450.44
2022-09-06T15:56:06.790Z,101449.69
2022-09-06T15:58:33.844Z,101442.78
2022-09-06T16:01:08.602Z,101428.69
2022-09-06T16:03:37.489Z,101433.97
2022-09-06T16:09:00.908Z,101441.53
2022-09-06T16:11:28.562Z,101449.66
2022-09-06T16:13:55.125Z,101432.69
2022-09-06T16:16:24.965Z,101436.78
2022-09-06T16:18:54.114Z,101434.41
2022-09-06T16:21:28.188Z,101435.69
2022-09-06T16:23:57.052Z,101430.88
2022-09-06T16:26:25.715Z,101425.56
2022-09-06T16:28:53.007Z,101420.22
2022-09-06T16:31:21.450Z,101425.16
2022-09-06T16:33:49.001Z,101418.97
2022-09-06T16:36:17.081Z,101423.81
2022-09-06T16:38:43.579Z,101427.69
2022-09-06T16:41:15.767Z,101421.81
2022-09-06T16:43:43.448Z,101424.16
2022-09-06T16:46:10.628Z,101419.03
2022-09-06T16:48:37.236Z,101418.41
2022-09-06T16:51:10.844Z,101420.41
2022-09-06T16:53:40.099Z,101414.13
2022-09-06T16:56:06.832Z,101417.38
2022-09-06T16:58:33.266Z,101421.47
2022-09-06T17:01:00.683Z,101426.69
2022-09-06T17:03:27.625Z,101438.84
2022-09-06T17:05:54.355Z,101429.00
2022-09-06T17:08:20.886Z,101433.13
2022-09-06T17:10:47.395Z,101424.00
2022-09-06T17:13:13.881Z,101417.19
2022-09-06T17:16:06.439Z,101419.50
2022-09-06T17:18:33.023Z,101425.06
2022-09-06T17:21:01.915Z,101424.41
2022-09-06T17:23:28.423Z,101423.75
2022-09-06T17:25:54.855Z,101421.13
2022-09-06T17:28:23.202Z,101424.72
2022-09-06T17:30:51.585Z,101427.53
2022-09-06T17:33:18.965Z,101435.28
2022-09-06T17:35:46.110Z,101436.31
2022-09-06T17:38:13.666Z,101438.09
2022-09-06T17:40:40.340Z,101436.72
2022-09-06T17:43:06.819Z,101433.56
2022-09-06T17:45:42.515Z,101429.69
2022-09-06T17:48:09.125Z,101425.38
2022-09-06T17:50:35.900Z,101436.56
2022-09-06T17:53:02.867Z,101432.69
2022-09-06T17:55:29.444Z,101434.94
2022-09-06T17:57:56.524Z,101436.28
2022-09-06T18:00:24.679Z,101425.25
2022-09-06T18:02:51.149Z,101442.91
2022-09-06T18:05:17.928Z,101432.13
2022-09-06T18:07:45.433Z,101429.72
2022-09-06T18:10:14.411Z,101443.38
2022-09-06T18:12:42.342Z,101444.41
2022-09-06T18:15:09.310Z,101444.94
2022-09-06T18:17:35.793Z,101439.28
2022-09-06T18:20:03.063Z,101431.41
2022-09-06T18:22:30.147Z,101421.34
2022-09-06T18:24:58.457Z,101427.59
2022-09-06T18:27:25.827Z,101422.72
2022-09-06T18:29:52.516Z,101412.91
2022-09-06T18:32:19.107Z,101412.00
2022-09-06T18:34:45.557Z,101399.22
2022-09-06T18:37:12.061Z,101400.81
2022-09-06T18:39:39.502Z,101401.63
2022-09-06T18:42:10.982Z,101407.56
2022-09-06T18:44:38.339Z,101404.34
2022-09-06T18:47:07.190Z,101401.56
2022-09-06T18:49:34.449Z,101407.03
2022-09-06T18:52:02.579Z,101395.28
2022-09-06T18:54:29.566Z,101401.00
2022-09-06T18:56:56.398Z,101399.56
2022-09-06T18:59:23.290Z,101400.38
2022-09-06T19:01:50.176Z,101398.66
2022-09-06T19:04:16.894Z,101392.06
2022-09-06T19:06:44.432Z,101393.56
2022-09-06T19:09:13.615Z,101383.00
2022-09-06T19:11:42.659Z,101382.03
2022-09-06T19:14:09.595Z,101384.00
2022-09-06T19:16:36.258Z,101376.88
2022-09-06T19:19:08.325Z,101362.63
2022-09-06T19:21:37.969Z,101358.50
2022-09-06T19:24:10.027Z,101360.03
2022-09-06T19:26:38.642Z,101366.47
2022-09-06T19:29:08.907Z,101363.81
2022-09-06T19:31:37.382Z,101367.09
2022-09-06T19:34:04.554Z,101358.50
2022-09-06T19:36:31.825Z,101355.59
2022-09-06T19:39:05.098Z,101358.06
2022-09-06T19:41:34.383Z,101352.41
2022-09-06T19:44:01.580Z,101344.31
2022-09-06T19:46:28.105Z,101327.59
2022-09-06T19:48:58.773Z,101329.09
2022-09-06T19:51:25.777Z,101322.50
2022-09-06T19:53:54.253Z,101317.63
2022-09-06T19:56:24.079Z,101312.50
2022-09-06T19:58:55.851Z,101313.00
2022-09-06T20:01:24.298Z,101314.50
2022-09-06T20:03:51.328Z,101305.69
2022-09-06T20:06:17.846Z,101308.16
2022-09-06T20:08:44.343Z,101299.06
2022-09-06T20:11:12.691Z,101298.59
2022-09-06T20:13:39.636Z,101291.19
2022-09-06T20:16:08.743Z,101281.91
2022-09-06T20:18:36.016Z,101279.69
2022-09-06T20:21:02.517Z,101285.38
2022-09-06T20:23:29.933Z,101270.88
2022-09-06T20:26:11.224Z,101271.38
2022-09-06T20:28:37.904Z,101276.53
2022-09-06T20:31:09.484Z,101269.16
2022-09-06T20:33:36.290Z,101277.78
2022-09-06T20:36:07.765Z,101270.91
2022-09-06T20:38:35.181Z,101261.78
2022-09-06T20:41:03.523Z,101251.22
2022-09-06T20:43:36.405Z,101252.94
2022-09-06T20:46:05.164Z,101258.13
2022-09-06T20:48:33.150Z,101261.84
2022-09-06T20:51:06.845Z,101265.50
2022-09-06T20:53:35.048Z,101263.31
2022-09-06T20:56:06.501Z,101258.88
2022-09-06T20:58:33.054Z,101255.72
2022-09-06T21:00:59.898Z,101241.97
2022-09-06T21:03:26.792Z,101237.81
2022-09-06T21:05:53.977Z,101238.09
2022-09-06T21:08:20.800Z,101237.13
2022-09-06T21:10:47.338Z,101219.44
2022-09-06T21:13:13.922Z,101218.72
2022-09-06T21:15:41.384Z,101210.38
2022-09-06T21:18:09.178Z,101204.47
2022-09-06T21:20:36.267Z,101205.47
2022-09-06T21:23:03.340Z,101212.84
2022-09-06T21:25:29.989Z,101218.28
2022-09-06T21:27:56.438Z,101211.63
2022-09-06T21:30:22.897Z,101202.78
2022-09-06T21:32:52.729Z,101208.19
2022-09-06T21:35:19.175Z,101197.34
2022-09-06T21:37:45.648Z,101202.53
2022-09-06T21:40:12.120Z,101203.75
2022-09-06T21:42:38.581Z,101206.47
2022-09-06T21:45:05.388Z,101209.41
2022-09-06T21:47:31.842Z,101211.38
2022-09-06T21:49:58.282Z,101201.31
2022-09-06T21:52:24.950Z,101200.56
2022-09-06T21:54:51.386Z,101195.88
2022-09-06T21:57:17.977Z,101190.47
2022-09-06T21:59:44.399Z,101196.13
2022-09-06T22:02:10.932Z,101192.69
2022-09-06T22:04:37.817Z,101200.06
2022-09-06T22:07:04.278Z,101199.56
2022-09-06T22:09:30.710Z,101216.53
2022-09-06T22:11:57.179Z,101211.88
2022-09-06T22:14:23.660Z,101204.25
2022-09-06T22:16:51.900Z,101222.22
2022-09-06T22:19:18.356Z,101219.53
2022-09-06T22:21:45.396Z,101242.44
2022-09-06T22:24:12.719Z,101252.78
2022-09-06T22:26:40.207Z,101294.38
2022-09-06T22:29:08.965Z,101347.97
2022-09-06T22:31:36.573Z,101391.00
2022-09-06T22:34:04.122Z,101418.97
2022-09-06T22:36:30.783Z,101437.81
2022-09-06T22:38:57.613Z,101469.69
2022-09-06T22:41:25.918Z,101495.94
2022-09-06T22:43:52.799Z,101495.91
2022-09-06T22:46:20.475Z,101480.91
2022-09-06T22:48:47.343Z,101474.31
2022-09-06T22:51:13.815Z,101474.38
2022-09-06T22:53:40.237Z,101478.44
2022-09-06T22:56:06.900Z,101478.88
2022-09-06T22:58:34.677Z,101468.91
2022-09-06T23:01:15.893Z,101460.56
2022-09-06T23:03:43.714Z,101448.88
2022-09-06T23:06:10.332Z,101444.09
2022-09-06T23:08:39.449Z,101425.63
2022-09-06T23:11:08.472Z,101415.25
2022-09-06T23:13:35.104Z,101421.53
2022-09-06T23:16:12.972Z,101414.59
2022-09-06T23:18:39.857Z,101410.88
2022-09-06T23:21:12.262Z,101410.78
2022-09-06T23:23:39.613Z,101419.06
2022-09-06T23:26:08.197Z,101407.56
2022-09-06T23:28:35.719Z,101402.19
2022-09-06T23:31:03.869Z,101409.50
2022-09-06T23:33:31.263Z,101404.88
2022-09-06T23:35:58.703Z,101413.41
2022-09-06T23:38:25.283Z,101404.13
2022-09-06T23:40:51.951Z,101402.38
2022-09-06T23:43:18.599Z,101390.41
2022-09-06T23:45:45.011Z,101378.34
2022-09-06T23:48:11.409Z,101368.53
2022-09-06T23:50:37.830Z,101351.88
2022-09-06T23:53:04.650Z,101354.75
2022-09-06T23:55:31.089Z,101357.19
2022-09-06T23:57:57.528Z,101354.22
